Irving, New York
Current Conditions -  °F | °C
As of 7:53 PM on Wednesday 26 Nov 2014 (Local Time) from KDKK Reporting Station
Overcast Overcast  
Wind Chill: 26°   Ceiling: 1500
Heat Index: 32°   Visibility: 10mi
Dew Point: 29°   Wind: 6mph
Humidity: 88%   Direction: 60°ENE
Pressure: 30.04"   Gusts: NA
Location:  42.57°N, 79.11°W
Report Text: KDKK 270053Z AUTO 06005KT 10SM OVC015 00/M02 A3004 RMK AO2 SLP180 T00001017
Loading
Personal Weather Stations






























Interactive Weather Map New forecast layout! Learn more

10-Day Weather Forecast

Advertisements
Track Severe Weather on mobile